createdAt,value
2019-04-16T00:00:25.321Z,5.90
2019-04-16T00:02:56.988Z,5.80
2019-04-16T00:05:48.544Z,5.87
2019-04-16T00:08:28.226Z,6.00
2019-04-16T00:11:05.630Z,5.43
2019-04-16T00:13:40.091Z,6.10
2019-04-16T00:16:13.022Z,5.77
2019-04-16T00:18:56.336Z,6.00
2019-04-16T00:21:34.201Z,5.87
2019-04-16T00:24:18.276Z,5.93
2019-04-16T00:26:49.665Z,5.80
2019-04-16T00:29:20.386Z,6.20
2019-04-16T00:32:15.662Z,5.50
2019-04-16T00:34:46.141Z,5.47
2019-04-16T00:37:20.466Z,5.77
2019-04-16T00:39:49.036Z,5.83
2019-04-16T00:42:19.958Z,6.30
2019-04-16T00:44:50.379Z,5.70
2019-04-16T00:47:20.888Z,6.20
2019-04-16T00:49:51.331Z,5.80
2019-04-16T00:52:22.136Z,6.17
2019-04-16T00:54:52.603Z,5.80
2019-04-16T00:57:23.034Z,5.90
2019-04-16T00:59:56.299Z,6.03
2019-04-16T01:02:25.905Z,6.10
2019-04-16T01:04:56.350Z,6.03
2019-04-16T01:07:27.059Z,6.13
2019-04-16T01:09:57.479Z,6.13
2019-04-16T01:12:28.451Z,6.07
2019-04-16T01:15:00.955Z,6.23
2019-04-16T01:17:33.463Z,5.70
2019-04-16T01:20:04.389Z,6.07
2019-04-16T01:22:34.829Z,5.73
2019-04-16T01:25:05.761Z,6.67
2019-04-16T01:27:39.863Z,6.33
2019-04-16T01:30:12.145Z,6.60
2019-04-16T01:32:58.870Z,6.27
2019-04-16T01:35:51.736Z,5.97
2019-04-16T01:38:29.028Z,6.33
2019-04-16T01:41:04.502Z,6.07
2019-04-16T01:43:34.933Z,5.93
2019-04-16T01:46:05.476Z,6.40
2019-04-16T01:48:38.600Z,6.07
2019-04-16T01:51:08.122Z,5.70
2019-04-16T01:53:38.814Z,6.23
2019-04-16T01:56:09.311Z,6.43
2019-04-16T01:58:39.754Z,6.70
2019-04-16T02:01:11.154Z,6.00
2019-04-16T02:03:42.418Z,6.07
2019-04-16T02:06:12.911Z,6.10
2019-04-16T02:08:43.597Z,6.70
2019-04-16T02:11:13.978Z,7.00
2019-04-16T02:13:46.269Z,6.53
2019-04-16T02:16:18.298Z,6.47
2019-04-16T02:18:50.229Z,6.63
2019-04-16T02:21:20.685Z,7.17
2019-04-16T02:23:51.103Z,6.33
2019-04-16T02:26:23.575Z,7.07
2019-04-16T02:28:56.472Z,7.13
2019-04-16T02:31:26.133Z,6.60
2019-04-16T02:33:56.542Z,6.30
2019-04-16T02:36:27.027Z,7.00
2019-04-16T02:38:57.501Z,7.03
2019-04-16T02:41:28.343Z,7.27
2019-04-16T02:43:58.826Z,7.23
2019-04-16T02:46:32.395Z,7.17
2019-04-16T02:49:02.229Z,6.80
2019-04-16T02:51:41.245Z,7.03
2019-04-16T02:54:19.543Z,6.63
2019-04-16T02:57:00.539Z,6.63
2019-04-16T02:59:34.882Z,6.97
2019-04-16T03:02:24.054Z,6.70
2019-04-16T03:05:09.454Z,6.73
2019-04-16T03:07:41.085Z,6.30
2019-04-16T03:10:13.293Z,6.07
2019-04-16T03:12:43.798Z,6.37
2019-04-16T03:15:18.505Z,6.37
2019-04-16T03:17:48.957Z,6.37
2019-04-16T03:20:20.897Z,6.60
2019-04-16T03:22:52.033Z,6.43
2019-04-16T03:25:22.594Z,6.53
2019-04-16T03:27:54.480Z,6.87
2019-04-16T03:30:25.136Z,6.73
2019-04-16T03:32:57.731Z,6.27
2019-04-16T03:35:28.122Z,7.17
2019-04-16T03:37:58.589Z,6.93
2019-04-16T03:40:29.018Z,7.00
2019-04-16T03:43:03.737Z,6.40
2019-04-16T03:45:31.574Z,6.30
2019-04-16T03:48:02.003Z,6.70
2019-04-16T03:50:32.423Z,7.00
2019-04-16T03:53:02.851Z,7.63
2019-04-16T03:55:33.259Z,6.83
2019-04-16T03:58:06.931Z,7.00
2019-04-16T04:00:43.764Z,7.20
2019-04-16T04:03:10.363Z,7.37
2019-04-16T04:05:40.833Z,6.63
2019-04-16T04:08:16.143Z,7.37
2019-04-16T04:10:43.559Z,6.87
2019-04-16T04:13:17.517Z,7.07
2019-04-16T04:15:46.121Z,6.90
2019-04-16T04:18:16.786Z,6.83
2019-04-16T04:20:50.027Z,7.07
2019-04-16T04:23:19.390Z,8.23
2019-04-16T04:25:49.962Z,8.00
2019-04-16T04:28:20.678Z,8.23
2019-04-16T04:30:51.276Z,7.97
2019-04-16T04:33:42.779Z,7.00
2019-04-16T04:36:12.509Z,7.77
2019-04-16T04:38:43.019Z,7.80
2019-04-16T04:41:13.841Z,7.97
2019-04-16T04:43:44.588Z,7.33
2019-04-16T04:46:15.725Z,7.37
2019-04-16T04:48:46.251Z,7.30
2019-04-16T04:51:16.687Z,7.37
2019-04-16T04:53:47.610Z,7.77
2019-04-16T04:56:20.041Z,7.43
2019-04-16T04:58:51.673Z,7.10
2019-04-16T05:01:22.077Z,7.27
2019-04-16T05:04:18.937Z,7.10
2019-04-16T05:06:46.353Z,7.27
2019-04-16T05:09:16.820Z,7.00
2019-04-16T05:11:48.369Z,7.23
2019-04-16T05:14:19.443Z,7.77
2019-04-16T05:16:49.888Z,8.07
2019-04-16T05:19:20.387Z,7.13
2019-04-16T05:21:50.931Z,7.63
2019-04-16T05:24:21.598Z,7.23
2019-04-16T05:26:52.076Z,8.10
2019-04-16T05:29:22.742Z,7.63
2019-04-16T05:31:56.949Z,7.50
2019-04-16T05:34:26.555Z,8.30
2019-04-16T05:36:57.034Z,8.93
2019-04-16T05:39:30.594Z,7.87
2019-04-16T05:42:01.057Z,7.87
2019-04-16T05:44:37.690Z,8.53
2019-04-16T05:47:16.845Z,7.50
2019-04-16T05:49:44.275Z,8.10
2019-04-16T05:52:14.669Z,7.47
2019-04-16T05:55:07.886Z,6.90
2019-04-16T05:57:40.241Z,6.83
2019-04-16T06:00:19.921Z,6.30
2019-04-16T06:02:50.823Z,6.90
2019-04-16T06:05:21.703Z,6.47
2019-04-16T06:07:55.153Z,6.60
2019-04-16T06:10:25.647Z,6.17
2019-04-16T06:13:21.454Z,7.10
2019-04-16T06:15:59.095Z,6.63
2019-04-16T06:18:44.024Z,6.83
2019-04-16T06:21:33.094Z,7.03
2019-04-16T06:24:14.359Z,7.00
2019-04-16T06:27:02.493Z,6.90
2019-04-16T06:30:02.335Z,7.17
2019-04-16T06:32:36.450Z,6.97
2019-04-16T06:35:44.436Z,6.57
2019-04-16T06:38:20.877Z,7.03
2019-04-16T06:41:10.462Z,7.03
2019-04-16T06:43:43.600Z,6.40
2019-04-16T06:46:39.451Z,7.43
2019-04-16T06:49:39.642Z,6.83
2019-04-16T06:52:27.884Z,7.40
2019-04-16T06:55:05.870Z,6.50
2019-04-16T06:57:44.596Z,7.20
2019-04-16T07:00:35.092Z,7.53
2019-04-16T07:03:27.234Z,8.23
2019-04-16T07:06:25.233Z,7.10
2019-04-16T07:09:05.804Z,7.60
2019-04-16T07:11:39.317Z,10.63
2019-04-16T07:14:11.477Z,7.47
2019-04-16T07:16:42.064Z,8.93
2019-04-16T07:19:12.765Z,7.60
2019-04-16T07:21:43.386Z,8.63
2019-04-16T07:24:13.918Z,7.53
2019-04-16T07:26:47.838Z,7.90
2019-04-16T07:29:41.998Z,6.90
2019-04-16T07:32:23.827Z,8.20
2019-04-16T07:35:13.550Z,8.47
2019-04-16T07:38:06.770Z,7.73
2019-04-16T07:40:51.934Z,7.83
2019-04-16T07:43:50.491Z,7.60
2019-04-16T07:46:44.238Z,8.03
2019-04-16T07:49:33.356Z,8.37
2019-04-16T07:52:16.737Z,8.03
2019-04-16T07:55:04.736Z,7.77
2019-04-16T07:57:35.381Z,7.80
2019-04-16T08:00:09.283Z,8.03
2019-04-16T08:02:39.687Z,7.63
2019-04-16T08:05:10.823Z,7.67
2019-04-16T08:07:42.470Z,7.83
2019-04-16T08:10:16.775Z,7.83
2019-04-16T08:13:00.577Z,8.30
2019-04-16T08:15:29.870Z,7.95
2019-04-16T08:18:00.310Z,7.53
2019-04-16T08:20:30.975Z,7.55
2019-04-16T08:23:04.291Z,8.00
2019-04-16T08:25:34.972Z,7.60
2019-04-16T08:28:07.470Z,7.90
2019-04-16T08:30:39.430Z,7.40
2019-04-16T08:33:11.114Z,7.95
2019-04-16T08:35:41.673Z,7.53
2019-04-16T08:38:12.099Z,7.70
2019-04-16T08:40:46.036Z,7.03
2019-04-16T08:43:15.117Z,7.63
2019-04-16T08:45:45.638Z,7.37
2019-04-16T08:48:18.645Z,7.08
2019-04-16T08:50:49.496Z,7.33
2019-04-16T08:53:20.003Z,7.30
2019-04-16T08:55:50.412Z,6.95
2019-04-16T08:58:21.083Z,7.22
2019-04-16T09:00:51.558Z,6.97
2019-04-16T09:03:22.172Z,7.28
2019-04-16T09:05:52.597Z,6.58
2019-04-16T09:08:28.507Z,6.72
2019-04-16T09:11:00.426Z,6.65
2019-04-16T09:13:35.106Z,6.33
2019-04-16T09:16:06.302Z,5.05
2019-04-16T09:18:53.263Z,5.87
2019-04-16T09:21:23.629Z,6.28
2019-04-16T09:24:11.776Z,5.70
2019-04-16T09:26:47.593Z,5.55
2019-04-16T09:29:29.686Z,5.85
2019-04-16T09:32:09.111Z,6.05
2019-04-16T09:35:08.011Z,5.10
2019-04-16T09:37:52.228Z,6.15
2019-04-16T09:40:40.506Z,5.92
2019-04-16T09:43:17.629Z,6.70
2019-04-16T09:45:45.358Z,6.87
2019-04-16T09:48:15.990Z,6.70
2019-04-16T09:50:47.876Z,6.90
2019-04-16T09:53:32.196Z,6.50
2019-04-16T09:55:51.305Z,7.58
2019-04-16T09:58:23.745Z,7.70
2019-04-16T10:01:06.852Z,8.25
2019-04-16T10:03:39.930Z,7.97
2019-04-16T10:06:10.419Z,7.95
2019-04-16T10:08:44.344Z,7.80
2019-04-16T10:11:13.491Z,7.70
2019-04-16T10:13:43.865Z,7.33
2019-04-16T10:16:14.821Z,7.45
2019-04-16T10:18:45.338Z,7.55
2019-04-16T10:21:18.790Z,7.42
2019-04-16T10:23:55.857Z,7.22
2019-04-16T10:26:26.353Z,7.60
2019-04-16T10:28:57.517Z,8.35
2019-04-16T10:31:28.159Z,7.90
2019-04-16T10:33:59.688Z,7.62
2019-04-16T10:36:30.292Z,8.15
2019-04-16T10:39:16.046Z,7.87
2019-04-16T10:42:01.245Z,7.45
2019-04-16T10:44:38.507Z,7.72
2019-04-16T10:47:21.408Z,8.60
2019-04-16T10:49:58.759Z,8.05
2019-04-16T10:52:46.721Z,8.28
2019-04-16T10:55:22.866Z,8.05
2019-04-16T10:58:11.069Z,8.35
2019-04-16T11:01:00.597Z,8.25
2019-04-16T11:03:51.586Z,7.62
2019-04-16T11:06:35.892Z,9.10
2019-04-16T11:09:07.513Z,7.72
2019-04-16T11:11:37.975Z,8.08
2019-04-16T11:14:08.779Z,8.33
2019-04-16T11:16:40.907Z,8.13
2019-04-16T11:19:11.842Z,7.85
2019-04-16T11:21:42.559Z,7.87
2019-04-16T11:24:13.351Z,8.00
2019-04-16T11:26:44.507Z,7.53
2019-04-16T11:29:15.081Z,7.90
2019-04-16T11:31:45.654Z,7.33
2019-04-16T11:34:17.302Z,7.80
2019-04-16T11:36:47.838Z,7.45
2019-04-16T11:39:18.359Z,8.00
2019-04-16T11:41:49.109Z,7.47
2019-04-16T11:44:19.662Z,8.88
2019-04-16T11:46:50.124Z,7.12
2019-04-16T11:49:21.719Z,7.42
2019-04-16T11:51:52.464Z,7.87
2019-04-16T11:54:22.924Z,7.83
2019-04-16T11:56:55.552Z,8.38
2019-04-16T11:59:25.633Z,8.35
2019-04-16T12:02:04.660Z,8.18
2019-04-16T12:05:00.398Z,6.97
2019-04-16T12:07:54.305Z,7.28
2019-04-16T12:10:42.394Z,8.08
2019-04-16T12:13:30.441Z,7.55
2019-04-16T12:16:11.913Z,7.70
2019-04-16T12:19:00.160Z,7.80
2019-04-16T12:21:47.491Z,8.48
2019-04-16T12:24:34.685Z,7.22
2019-04-16T12:27:17.233Z,7.17
2019-04-16T12:30:05.506Z,7.30
2019-04-16T12:32:59.253Z,7.53
2019-04-16T12:35:49.704Z,6.80
2019-04-16T12:38:25.223Z,7.72
2019-04-16T12:41:14.871Z,7.80
2019-04-16T12:43:51.668Z,7.47
2019-04-16T12:46:44.543Z,7.70
2019-04-16T12:49:32.545Z,7.80
2019-04-16T12:52:15.881Z,7.90
2019-04-16T12:54:59.313Z,7.92
2019-04-16T12:57:37.254Z,7.72
2019-04-16T13:00:16.186Z,7.80
2019-04-16T13:03:04.253Z,6.92
2019-04-16T13:05:53.967Z,5.53
2019-04-16T13:08:35.793Z,7.25
2019-04-16T13:11:14.588Z,7.70
2019-04-16T13:14:02.931Z,7.50
2019-04-16T13:16:42.864Z,7.20
2019-04-16T13:19:31.282Z,6.62
2019-04-16T13:22:02.204Z,7.03
2019-04-16T13:24:51.743Z,7.47
2019-04-16T13:27:24.878Z,7.30
2019-04-16T13:29:55.574Z,7.70
2019-04-16T13:32:27.833Z,8.03
2019-04-16T13:34:58.842Z,7.67
2019-04-16T13:37:36.303Z,7.22
2019-04-16T13:40:08.867Z,7.75
2019-04-16T13:42:39.510Z,7.60
2019-04-16T13:45:25.622Z,7.58
2019-04-16T13:47:55.646Z,7.50
2019-04-16T13:50:35.851Z,6.87
2019-04-16T13:53:17.070Z,7.20
2019-04-16T13:56:04.974Z,6.92
2019-04-16T13:58:40.541Z,7.60
2019-04-16T14:01:17.669Z,7.50
2019-04-16T14:03:48.053Z,7.60
2019-04-16T14:06:18.455Z,6.95
2019-04-16T14:08:48.863Z,6.83
2019-04-16T14:11:20.514Z,6.95
2019-04-16T14:13:51.105Z,6.50
2019-04-16T14:16:21.582Z,6.72
2019-04-16T14:18:52.061Z,7.35
2019-04-16T14:21:22.423Z,6.95
2019-04-16T14:23:52.782Z,6.85
2019-04-16T14:26:23.450Z,7.80
2019-04-16T14:28:56.799Z,7.00
2019-04-16T14:31:26.929Z,6.87
2019-04-16T14:34:19.585Z,7.33
2019-04-16T14:36:53.122Z,6.78
2019-04-16T14:39:29.906Z,6.92
2019-04-16T14:42:00.314Z,7.47
2019-04-16T14:44:35.300Z,7.20
2019-04-16T14:47:05.730Z,7.70
2019-04-16T14:49:36.547Z,6.80
2019-04-16T14:52:07.115Z,7.40
2019-04-16T14:54:42.449Z,7.50
2019-04-16T14:57:13.310Z,7.33
2019-04-16T15:00:06.119Z,8.23
2019-04-16T15:02:44.462Z,6.70
2019-04-16T15:05:24.645Z,6.90
2019-04-16T15:08:14.183Z,7.22
2019-04-16T15:11:15.531Z,7.08
2019-04-16T15:13:55.791Z,7.70
2019-04-16T15:16:36.094Z,7.83
2019-04-16T15:19:24.025Z,7.33
2019-04-16T15:22:28.745Z,8.40
2019-04-16T15:25:20.809Z,8.18
2019-04-16T15:28:06.237Z,7.97
2019-04-16T15:30:48.802Z,8.05
2019-04-16T15:33:44.395Z,7.55
2019-04-16T15:36:20.914Z,7.67
2019-04-16T15:38:59.079Z,7.55
2019-04-16T15:41:44.545Z,7.62
2019-04-16T15:44:22.599Z,7.50
2019-04-16T15:47:02.313Z,7.67
2019-04-16T15:49:40.939Z,8.00
2019-04-16T15:52:27.953Z,7.65
2019-04-16T15:55:16.330Z,7.78
2019-04-16T15:58:18.967Z,7.87
2019-04-16T16:00:55.003Z,9.05
2019-04-16T16:03:43.266Z,8.25
2019-04-16T16:06:16.929Z,8.28
2019-04-16T16:09:19.016Z,8.13
2019-04-16T16:11:59.937Z,8.48
2019-04-16T16:14:34.635Z,9.08
2019-04-16T16:17:02.463Z,8.83
2019-04-16T16:19:32.830Z,8.95
2019-04-16T16:22:03.233Z,8.45
2019-04-16T16:24:35.901Z,8.58
2019-04-16T16:27:05.730Z,9.10
2019-04-16T16:29:36.146Z,9.55
2019-04-16T16:32:06.586Z,8.53
2019-04-16T16:34:36.986Z,8.50
2019-04-16T16:37:07.521Z,9.33
2019-04-16T16:39:38.170Z,9.40
2019-04-16T16:42:09.550Z,9.58
2019-04-16T16:44:40.238Z,9.58
2019-04-16T16:47:21.092Z,9.63
2019-04-16T16:49:51.533Z,10.15
2019-04-16T16:52:39.818Z,10.25
2019-04-16T16:55:16.659Z,9.95
2019-04-16T16:57:57.733Z,9.73
2019-04-16T17:00:35.898Z,9.75
2019-04-16T17:03:22.338Z,10.00
2019-04-16T17:05:52.878Z,9.73
2019-04-16T17:08:27.108Z,10.38
2019-04-16T17:11:16.032Z,11.12
2019-04-16T17:13:38.851Z,10.75
2019-04-16T17:16:13.505Z,11.18
2019-04-16T17:18:45.442Z,10.50
2019-04-16T17:21:15.697Z,10.50
2019-04-16T17:23:46.325Z,10.88
2019-04-16T17:26:17.084Z,10.85
2019-04-16T17:29:00.865Z,10.48
2019-04-16T17:31:35.591Z,10.43
2019-04-16T17:34:04.827Z,10.48
2019-04-16T17:36:35.611Z,10.88
2019-04-16T17:39:10.504Z,11.75
2019-04-16T17:41:48.380Z,11.08
2019-04-16T17:45:05.094Z,10.63
2019-04-16T17:48:10.008Z,10.45
2019-04-16T17:51:00.569Z,10.28
2019-04-16T17:53:41.434Z,11.88
2019-04-16T17:56:29.399Z,12.50
2019-04-16T17:59:02.763Z,12.20
2019-04-16T18:01:51.027Z,11.45
2019-04-16T18:04:28.666Z,11.00
2019-04-16T18:07:24.902Z,11.53
2019-04-16T18:10:14.761Z,11.40
2019-04-16T18:13:06.529Z,11.43
2019-04-16T18:15:55.981Z,11.38
2019-04-16T18:18:58.343Z,11.53
2019-04-16T18:21:41.888Z,10.50
2019-04-16T18:24:39.991Z,10.03
2019-04-16T18:27:29.218Z,11.03
2019-04-16T18:30:39.238Z,11.55
2019-04-16T18:33:30.862Z,10.80
2019-04-16T18:36:34.967Z,11.53
2019-04-16T18:39:37.195Z,12.28
2019-04-16T18:42:30.518Z,11.40
2019-04-16T18:45:19.937Z,11.37
2019-04-16T18:48:13.105Z,12.50
2019-04-16T18:50:40.455Z,11.03
2019-04-16T18:53:15.493Z,12.67
2019-04-16T18:55:49.361Z,11.03
2019-04-16T18:58:20.385Z,15.33
2019-04-16T19:00:54.003Z,12.93
2019-04-16T19:03:25.242Z,14.73
2019-04-16T19:06:02.394Z,14.33
2019-04-16T19:08:41.577Z,13.60
2019-04-16T19:11:10.696Z,14.93
2019-04-16T19:13:41.712Z,13.17
2019-04-16T19:16:13.327Z,13.60
2019-04-16T19:18:44.119Z,13.80
2019-04-16T19:21:15.043Z,14.60
2019-04-16T19:23:56.344Z,16.97
2019-04-16T19:26:30.095Z,16.93
2019-04-16T19:29:09.759Z,15.57
2019-04-16T19:31:40.122Z,15.73
2019-04-16T19:34:11.067Z,11.53
2019-04-16T19:36:42.459Z,9.57
2019-04-16T19:39:15.330Z,8.83
2019-04-16T19:41:47.978Z,8.40
2019-04-16T19:44:18.779Z,8.50
2019-04-16T19:46:52.658Z,9.27
2019-04-16T19:49:27.947Z,8.73
2019-04-16T19:52:04.167Z,9.40
2019-04-16T19:54:35.351Z,10.30
2019-04-16T19:57:06.850Z,9.13
2019-04-16T19:59:38.064Z,9.47
2019-04-16T20:02:11.276Z,12.67
2019-04-16T20:04:44.521Z,10.87
2019-04-16T20:07:18.246Z,12.47
2019-04-16T20:09:49.540Z,11.10
2019-04-16T20:12:20.047Z,9.40
2019-04-16T20:14:50.533Z,10.70
2019-04-16T20:17:20.967Z,9.53
2019-04-16T20:20:01.502Z,9.03
2019-04-16T20:22:32.114Z,8.77
2019-04-16T20:25:02.725Z,8.80
2019-04-16T20:27:36.283Z,9.13
2019-04-16T20:30:08.421Z,9.03
2019-04-16T20:32:42.195Z,9.03
2019-04-16T20:35:11.586Z,8.57
2019-04-16T20:37:42.118Z,8.60
2019-04-16T20:40:14.612Z,8.40
2019-04-16T20:42:44.570Z,8.00
2019-04-16T20:45:15.131Z,8.40
2019-04-16T20:47:45.550Z,8.43
2019-04-16T20:50:20.559Z,8.53
2019-04-16T20:52:48.902Z,9.30
2019-04-16T20:55:19.648Z,9.27
2019-04-16T20:57:50.092Z,9.80
2019-04-16T21:00:27.314Z,9.23
2019-04-16T21:02:58.079Z,8.60
2019-04-16T21:05:28.528Z,8.43
2019-04-16T21:07:59.186Z,8.80
2019-04-16T21:10:29.763Z,8.47
2019-04-16T21:13:00.186Z,7.97
2019-04-16T21:15:30.740Z,8.77
2019-04-16T21:18:01.557Z,8.73
2019-04-16T21:20:33.150Z,8.63
2019-04-16T21:23:04.090Z,8.77
2019-04-16T21:25:35.683Z,8.93
2019-04-16T21:28:20.477Z,8.67
2019-04-16T21:30:54.672Z,8.30
2019-04-16T21:33:30.569Z,8.03
2019-04-16T21:36:04.754Z,8.13
2019-04-16T21:38:51.879Z,8.07
2019-04-16T21:41:22.306Z,7.57
2019-04-16T21:43:52.731Z,7.87
2019-04-16T21:46:23.201Z,7.90
2019-04-16T21:48:55.979Z,8.23
2019-04-16T21:51:26.031Z,8.53
2019-04-16T21:53:58.086Z,7.90
2019-04-16T21:56:29.128Z,8.70
2019-04-16T21:58:59.535Z,8.23
2019-04-16T22:01:42.981Z,7.97
2019-04-16T22:04:15.753Z,7.47
2019-04-16T22:06:49.037Z,7.60
2019-04-16T22:09:18.455Z,7.80
2019-04-16T22:11:49.188Z,7.53
2019-04-16T22:14:22.218Z,8.13
2019-04-16T22:16:51.898Z,8.40
2019-04-16T22:19:22.358Z,7.20
2019-04-16T22:21:52.840Z,7.93
2019-04-16T22:24:23.838Z,8.33
2019-04-16T22:26:54.561Z,8.50
2019-04-16T22:29:25.037Z,7.77
2019-04-16T22:31:57.127Z,8.67
2019-04-16T22:34:27.737Z,8.50
2019-04-16T22:36:58.191Z,8.23
2019-04-16T22:39:41.770Z,8.07
2019-04-16T22:42:29.598Z,8.17
2019-04-16T22:45:19.872Z,8.30
2019-04-16T22:47:50.307Z,8.10
2019-04-16T22:50:20.775Z,8.57
2019-04-16T22:52:51.187Z,8.00
2019-04-16T22:55:24.435Z,8.30
2019-04-16T22:57:53.742Z,9.00
2019-04-16T23:00:30.769Z,8.27
2019-04-16T23:03:01.511Z,8.40
2019-04-16T23:05:32.095Z,7.73
2019-04-16T23:08:02.820Z,8.03
2019-04-16T23:10:33.353Z,8.50
2019-04-16T23:13:03.785Z,7.93
2019-04-16T23:15:34.230Z,8.07
2019-04-16T23:18:06.367Z,8.47
2019-04-16T23:20:37.179Z,8.40
2019-04-16T23:23:07.666Z,8.67
2019-04-16T23:25:38.459Z,9.20
2019-04-16T23:28:10.649Z,9.07
2019-04-16T23:30:43.816Z,8.57
2019-04-16T23:33:14.596Z,9.20
2019-04-16T23:35:45.052Z,8.70
2019-04-16T23:38:15.682Z,8.70
2019-04-16T23:40:46.478Z,8.60
2019-04-16T23:43:29.656Z,9.03
2019-04-16T23:46:28.240Z,9.43
2019-04-16T23:49:08.975Z,8.60
2019-04-16T23:51:48.394Z,8.83
2019-04-16T23:54:24.198Z,8.70
2019-04-16T23:57:21.629Z,9.50
